Pembrey Sands, United Kingdom
Current Conditions -  °F | °C
As of 8:50 PM on Friday 31 Oct 2014 (Local Time) from EGOP Reporting Station
Broken Clouds Broken Clouds  
Wind Chill: 57°   Ceiling: 2100
Heat Index: 57°   Visibility: 4mi
Dew Point: 57°   Wind: 23mph
Humidity: 100%   Direction: 240°WSW
Pressure: 29.83"   Gusts: NA
Location:  51.72°N, 4.37°W
Report Text: EGOP 312050Z AUTO 24020KT 7000 // FEW003/// SCT007/// BKN021/// 14/14 Q1010
Loading
Personal Weather Stations






























Interactive Weather Map
Tropical Storm Tracking
New forecast layout! Learn more

10-Day Weather Forecast

Advertisements
Track Severe Weather on mobile